Time;durP1;ratioP1;P1;durP2;ratioP2;P2;SDS_P1;SDS_P2;PMS_P1;PMS_P2;Temp;Humidity;BMP_temperature;BMP_pressure;BME280_temperature;BME280_humidity;BME280_pressure;Samples;Min_cycle;Max_cycle;Signal;HPM_P1;HPM_P2
2021/06/18 00:01:25;153239.00;0.51;265.39;36268.00;0.12;63.43;;;;;25.50;1.00;;;;;;2569977;56;1070;-82
2021/06/18 00:03:52;47017.00;0.16;82.03;0.00;0.00;0.62;;;;;25.50;1.00;;;;;;2570310;56;1117;-82
2021/06/18 00:06:19;7346.00;0.02;13.35;0.00;0.00;0.62;;;;;25.50;1.00;;;;;;2570356;56;1957;-82
2021/06/18 00:08:46;342438.00;1.14;590.86;74244.00;0.25;129.09;;;;;25.60;1.00;;;;;;2570149;56;1113;-83
2021/06/18 00:11:13;117888.00;0.39;204.44;0.00;0.00;0.62;;;;;25.60;1.00;;;;;;2570497;56;1098;-83
2021/06/18 00:13:40;17253.00;0.06;30.51;0.00;0.00;0.62;;;;;25.50;1.00;;;;;;2570433;56;1144;-83
2021/06/18 00:16:07;0.00;0.00;0.62;0.00;0.00;0.62;;;;;25.40;1.00;;;;;;2570212;56;1334;-83
2021/06/18 00:18:36;23410.00;0.08;41.17;0.00;0.00;0.62;;;;;25.10;1.00;;;;;;2570316;56;1204;-83
2021/06/18 00:21:03;33469.00;0.11;58.59;0.00;0.00;0.62;;;;;25.20;1.00;;;;;;2570999;56;1112;-83
2021/06/18 00:23:31;166349.00;0.55;287.98;0.00;0.00;0.62;;;;;25.10;1.00;;;;;;2570978;56;1130;-83
2021/06/18 00:25:57;440325.00;1.47;759.14;151315.00;0.50;262.07;;;;;25.20;1.00;;;;;;2570324;55;1955;-83
2021/06/18 00:28:24;0.00;0.00;0.62;0.00;0.00;0.62;;;;;25.30;1.00;;;;;;2570326;56;1096;-82
2021/06/18 00:30:51;53967.00;0.18;94.05;0.00;0.00;0.62;;;;;25.20;1.00;;;;;;2570320;56;1149;-82
2021/06/18 00:33:18;96398.00;0.32;167.35;0.00;0.00;0.62;;;;;25.20;1.00;;;;;;2573179;56;1128;-82
2021/06/18 00:35:46;0.00;0.00;0.62;0.00;0.00;0.62;;;;;25.20;1.00;;;;;;2575395;56;1250;-82
2021/06/18 00:38:13;65081.00;0.22;113.26;0.00;0.00;0.62;;;;;25.20;1.00;;;;;;2575003;56;1097;-82
2021/06/18 00:40:40;33589.00;0.11;58.79;0.00;0.00;0.62;;;;;25.10;1.00;;;;;;2573281;55;1119;-83
2021/06/18 00:43:07;0.00;0.00;0.62;0.00;0.00;0.62;;;;;24.90;1.00;;;;;;2571272;56;1141;-83
2021/06/18 00:45:34;85128.00;0.28;147.89;0.00;0.00;0.62;;;;;24.70;1.00;;;;;;2572986;56;1331;-83
2021/06/18 00:48:02;0.00;0.00;0.62;0.00;0.00;0.62;;;;;24.60;1.00;;;;;;2575593;55;1972;-83
2021/06/18 00:50:30;175522.00;0.59;303.78;9896.00;0.03;17.77;;;;;24.70;1.00;;;;;;2575486;55;1146;-82
2021/06/18 00:52:58;20759.00;0.07;36.58;0.00;0.00;0.62;;;;;24.80;1.00;;;;;;2573083;55;1156;-82
2021/06/18 00:55:26;12489.00;0.04;22.26;0.00;0.00;0.62;;;;;24.70;1.00;;;;;;2572075;56;1295;-82
2021/06/18 00:57:54;83202.00;0.28;144.57;0.00;0.00;0.62;;;;;24.70;1.00;;;;;;2573738;56;1148;-83
2021/06/18 01:00:22;42842.00;0.14;74.81;0.00;0.00;0.62;;;;;24.50;1.00;;;;;;2573445;56;1168;-83
2021/06/18 01:02:49;16001.00;0.05;28.34;0.00;0.00;0.62;;;;;24.60;1.00;;;;;;2574937;55;1113;-83
2021/06/18 01:05:18;0.00;0.00;0.62;0.00;0.00;0.62;;;;;24.70;1.00;;;;;;2571283;55;1283;-83
2021/06/18 01:08:07;98749.00;0.33;171.41;0.00;0.00;0.62;;;;;24.70;1.00;;;;;;2570113;55;1953;-83
2021/06/18 01:10:43;11297.00;0.04;20.20;0.00;0.00;0.62;;;;;24.60;1.00;;;;;;2570483;56;1117;-83
2021/06/18 01:13:21;135836.00;0.45;235.39;66923.00;0.22;116.44;;;;;24.60;1.00;;;;;;2570767;56;1120;-83
2021/06/18 01:15:56;15011.00;0.05;26.63;0.00;0.00;0.62;;;;;24.70;1.00;;;;;;2572680;55;1280;-83
2021/06/18 01:18:28;40176.00;0.13;70.19;0.00;0.00;0.62;;;;;24.60;1.00;;;;;;2572860;55;1187;-83
2021/06/18 01:21:26;75422.00;0.25;131.13;0.00;0.00;0.62;;;;;24.40;1.00;;;;;;2570531;55;1117;-83
2021/06/18 01:24:08;0.00;0.00;0.62;0.00;0.00;0.62;;;;;24.10;1.00;;;;;;2570380;56;1137;-84
2021/06/18 01:27:00;91253.00;0.30;158.47;16116.00;0.05;28.54;;;;;24.00;1.00;;;;;;2570340;56;1977;-84
2021/06/18 01:29:32;174036.00;0.58;301.22;0.00;0.00;0.62;;;;;23.90;1.00;;;;;;2569684;56;1113;-83
2021/06/18 01:32:04;16619.00;0.06;29.41;0.00;0.00;0.62;;;;;23.80;1.00;;;;;;2574623;55;1124;-84
2021/06/18 01:34:33;0.00;0.00;0.62;0.00;0.00;0.62;;;;;23.70;1.00;;;;;;2575694;55;2285;-83
2021/06/18 01:37:06;465479.00;1.55;802.41;105117.00;0.35;182.40;;;;;23.80;1.00;;;;;;2576152;55;1247;-85
2021/06/18 01:39:34;407339.00;1.36;702.42;100238.00;0.33;173.98;;;;;23.90;1.00;;;;;;2574171;56;1102;-85
2021/06/18 01:42:06;0.00;0.00;0.62;0.00;0.00;0.62;;;;;23.90;1.00;;;;;;2572504;56;1117;-84
2021/06/18 01:44:36;44866.00;0.15;78.31;0.00;0.00;0.62;;;;;23.80;1.00;;;;;;2570833;56;1146;-84
2021/06/18 01:47:05;253558.00;0.85;438.07;72741.00;0.24;126.50;;;;;23.80;1.00;;;;;;2570502;56;1971;-84
2021/06/18 01:49:36;0.00;0.00;0.62;0.00;0.00;0.62;;;;;23.90;1.00;;;;;;2570181;56;1206;-84
2021/06/18 01:52:05;71886.00;0.24;125.02;0.00;0.00;0.62;;;;;24.10;1.00;;;;;;2574124;55;1112;-83
2021/06/18 01:54:35;0.00;0.00;0.62;0.00;0.00;0.62;;;;;24.20;1.00;;;;;;2576698;55;951;-82
2021/06/18 01:57:04;0.00;0.00;0.62;0.00;0.00;0.62;;;;;24.00;1.00;;;;;;2574038;55;2487;-83
2021/06/18 01:59:36;31005.00;0.10;54.32;0.00;0.00;0.62;;;;;24.00;1.00;;;;;;2569302;56;1102;-84
2021/06/18 02:02:06;274837.00;0.92;474.66;88288.00;0.29;153.35;;;;;24.20;1.00;;;;;;2569431;56;1103;-84
2021/06/18 02:04:35;98234.00;0.33;170.52;0.00;0.00;0.62;;;;;24.30;1.00;;;;;;2569767;56;1085;-84
2021/06/18 02:07:04;74512.00;0.25;129.56;0.00;0.00;0.62;;;;;24.20;1.00;;;;;;2569689;56;1977;-83
2021/06/18 02:09:34;173481.00;0.58;300.26;51340.00;0.17;89.50;;;;;24.20;1.00;;;;;;2572181;55;1121;-83
2021/06/18 02:12:01;0.00;0.00;0.62;0.00;0.00;0.62;;;;;24.20;1.00;;;;;;2569929;56;1101;-83
2021/06/18 02:14:31;151527.00;0.51;262.44;0.00;0.00;0.62;;;;;24.20;1.00;;;;;;2569563;56;1149;-83
2021/06/18 02:17:04;0.00;0.00;0.62;0.00;0.00;0.62;;;;;24.10;1.00;;;;;;2569180;55;1511;-83
2021/06/18 02:19:34;0.00;0.00;0.62;0.00;0.00;0.62;;;;;24.00;1.00;;;;;;2569366;56;1212;-83
2021/06/18 02:22:03;0.00;0.00;0.62;0.00;0.00;0.62;;;;;24.10;1.00;;;;;;2569607;56;1106;-83
2021/06/18 02:24:34;8969.00;0.03;16.16;0.00;0.00;0.62;;;;;24.00;1.00;;;;;;2572514;55;1144;-83
2021/06/18 02:27:03;107783.00;0.36;187.00;0.00;0.00;0.62;;;;;24.00;1.00;;;;;;2569895;56;1959;-83
2021/06/18 02:29:31;0.00;0.00;0.62;0.00;0.00;0.62;;;;;24.10;1.00;;;;;;2570038;56;1130;-83
2021/06/18 02:32:05;0.00;0.00;0.62;0.00;0.00;0.62;;;;;24.20;1.00;;;;;;2569854;56;1125;-83
2021/06/18 02:34:33;78727.00;0.26;136.84;0.00;0.00;0.62;;;;;24.10;1.00;;;;;;2569913;56;1176;-83
2021/06/18 02:37:00;94659.00;0.32;164.35;0.00;0.00;0.62;;;;;24.10;1.00;;;;;;2571924;55;1308;-83
2021/06/18 02:39:27;16635.00;0.06;29.44;0.00;0.00;0.62;;;;;24.10;1.00;;;;;;2569507;56;1076;-85
2021/06/18 02:41:54;54613.00;0.18;95.16;0.00;0.00;0.62;;;;;23.70;1.00;;;;;;2569587;56;1090;-83
2021/06/18 02:44:21;0.00;0.00;0.62;0.00;0.00;0.62;;;;;23.60;1.00;;;;;;2571731;55;1788;-83
2021/06/18 02:46:56;192784.00;0.64;333.50;34907.00;0.12;61.08;;;;;23.60;1.00;;;;;;2569424;56;1975;-83
2021/06/18 02:49:34;24989.00;0.08;43.91;0.00;0.00;0.62;;;;;23.70;1.00;;;;;;2569299;56;1077;-83
2021/06/18 02:52:06;0.00;0.00;0.62;0.00;0.00;0.62;;;;;23.70;1.00;;;;;;2569316;56;1126;-83
2021/06/18 02:54:39;215511.00;0.72;372.62;82433.00;0.27;143.24;;;;;23.70;1.00;;;;;;2569617;56;1118;-84
2021/06/18 02:57:15;0.00;0.00;0.62;0.00;0.00;0.62;;;;;23.80;1.00;;;;;;2571667;55;1158;-83
2021/06/18 02:59:50;130547.00;0.44;226.27;0.00;0.00;0.62;;;;;23.80;1.00;;;;;;2571807;55;1090;-84
2021/06/18 03:02:20;59071.00;0.20;102.87;0.00;0.00;0.62;;;;;24.00;1.00;;;;;;2568377;56;1188;-84
2021/06/18 03:04:51;83830.00;0.28;145.65;0.00;0.00;0.62;;;;;23.40;1.00;;;;;;2569164;56;1410;-84
2021/06/18 03:07:24;0.00;0.00;0.62;0.00;0.00;0.62;;;;;23.00;1.00;;;;;;2568891;56;1973;-85
2021/06/18 03:09:54;38940.00;0.13;68.05;0.00;0.00;0.62;;;;;22.90;1.00;;;;;;2571731;55;1127;-84
2021/06/18 03:12:24;104770.00;0.35;181.80;15386.00;0.05;27.28;;;;;23.00;1.00;;;;;;2569770;56;1064;-84
2021/06/18 03:14:55;526.00;0.00;1.53;0.00;0.00;0.62;;;;;23.00;1.00;;;;;;2569543;56;1269;-84
2021/06/18 03:17:24;0.00;0.00;0.62;0.00;0.00;0.62;;;;;23.10;1.00;;;;;;2569416;56;1101;-84
2021/06/18 03:20:04;155232.00;0.52;268.82;31534.00;0.11;55.24;;;;;23.10;1.00;;;;;;2569570;56;1110;-84
2021/06/18 03:22:33;189279.00;0.63;327.47;38409.00;0.13;67.14;;;;;23.20;1.00;;;;;;2569370;56;1139;-84
2021/06/18 03:25:03;207975.00;0.69;359.65;47523.00;0.16;82.90;;;;;23.30;1.00;;;;;;2574863;55;1353;-84
2021/06/18 03:27:32;19538.00;0.07;34.47;0.00;0.00;0.62;;;;;23.20;1.00;;;;;;2574248;56;1953;-84
2021/06/18 03:29:59;0.00;0.00;0.62;0.00;0.00;0.62;;;;;23.10;1.00;;;;;;2575447;56;1181;-84
2021/06/18 03:32:34;0.00;0.00;0.62;0.00;0.00;0.62;;;;;23.10;1.00;;;;;;2575680;56;1168;-84
2021/06/18 03:35:03;42784.00;0.14;74.70;0.00;0.00;0.62;;;;;23.30;1.00;;;;;;2577352;55;1407;-83
2021/06/18 03:37:30;8572.00;0.03;15.48;0.00;0.00;0.62;;;;;23.40;1.00;;;;;;2574986;56;1188;-83
2021/06/18 03:39:58;43380.00;0.14;75.74;0.00;0.00;0.62;;;;;23.60;1.00;;;;;;2571155;56;1168;-83
2021/06/18 03:42:26;19302.00;0.06;34.06;0.00;0.00;0.62;;;;;23.90;1.00;;;;;;2568583;56;1148;-83
2021/06/18 03:44:55;0.00;0.00;0.62;0.00;0.00;0.62;;;;;24.00;1.00;;;;;;2570554;55;1327;-83
2021/06/18 03:47:23;36782.00;0.12;64.32;0.00;0.00;0.62;;;;;23.90;1.00;;;;;;2568435;56;1975;-84
2021/06/18 03:49:51;412253.00;1.37;710.87;203990.00;0.68;352.79;;;;;23.70;1.00;;;;;;2568516;55;1061;-83
2021/06/18 03:52:20;41668.00;0.14;72.77;0.00;0.00;0.62;;;;;23.60;1.00;;;;;;2570488;55;1191;-83
2021/06/18 03:54:47;15782.00;0.05;27.97;0.00;0.00;0.62;;;;;23.50;1.00;;;;;;2568404;56;1245;-83
2021/06/18 03:57:16;207561.00;0.69;358.94;59069.00;0.20;102.87;;;;;23.60;1.00;;;;;;2568356;56;1055;-83
2021/06/18 03:59:45;0.00;0.00;0.62;0.00;0.00;0.62;;;;;23.40;1.00;;;;;;2568440;56;1267;-83
2021/06/18 04:02:15;22163.00;0.07;39.02;0.00;0.00;0.62;;;;;23.20;1.00;;;;;;2568829;56;1128;-83
2021/06/18 04:04:44;87139.00;0.29;151.37;20194.00;0.07;35.61;;;;;23.10;1.00;;;;;;2571103;55;1363;-83
2021/06/18 04:07:12;146337.00;0.49;253.49;28818.00;0.10;50.54;;;;;23.20;1.00;;;;;;2568899;56;1953;-83
2021/06/18 04:09:41;330281.00;1.10;569.97;48724.00;0.16;84.98;;;;;23.50;1.00;;;;;;2570530;55;1120;-83
2021/06/18 04:12:10;72685.00;0.24;126.40;0.00;0.00;0.62;;;;;23.60;1.00;;;;;;2568999;56;1148;-83
2021/06/18 04:14:38;0.00;0.00;0.62;0.00;0.00;0.62;;;;;23.70;1.00;;;;;;2568779;56;1031;-82
2021/06/18 04:17:05;73862.00;0.25;128.43;0.00;0.00;0.62;;;;;24.00;1.00;;;;;;2568036;56;1129;-78
2021/06/18 04:19:33;0.00;0.00;0.62;0.00;0.00;0.62;;;;;23.90;1.00;;;;;;2567667;55;1113;-78
2021/06/18 04:22:03;97017.00;0.32;168.42;29297.00;0.10;51.37;;;;;23.90;1.00;;;;;;2566529;56;1078;-79
2021/06/18 04:24:30;0.00;0.00;0.62;0.00;0.00;0.62;;;;;23.90;1.00;;;;;;2571950;56;1160;-80
2021/06/18 04:26:58;36544.00;0.12;63.91;0.00;0.00;0.62;;;;;24.00;1.00;;;;;;2571528;55;1248;-79
2021/06/18 04:29:25;0.00;0.00;0.62;0.00;0.00;0.62;;;;;24.00;1.00;;;;;;2570352;56;1918;-79
2021/06/18 04:31:52;0.00;0.00;0.62;0.00;0.00;0.62;;;;;24.10;1.00;;;;;;2572022;55;998;-79
2021/06/18 04:34:19;43155.00;0.14;75.35;0.00;0.00;0.62;;;;;24.10;1.00;;;;;;2572049;56;1141;-79
2021/06/18 04:36:46;99430.00;0.33;172.59;0.00;0.00;0.62;;;;;24.10;1.00;;;;;;2571230;56;1367;-79
2021/06/18 04:39:14;0.00;0.00;0.62;0.00;0.00;0.62;;;;;23.90;1.00;;;;;;2571255;55;1190;-79
2021/06/18 04:41:42;0.00;0.00;0.62;0.00;0.00;0.62;;;;;24.20;1.00;;;;;;2572557;56;1112;-80
2021/06/18 04:44:11;70707.00;0.24;122.98;0.00;0.00;0.62;;;;;24.50;1.00;;;;;;2571000;56;1106;-79
2021/06/18 04:46:38;0.00;0.00;0.62;0.00;0.00;0.62;;;;;24.60;1.00;;;;;;2574703;56;1348;-79
2021/06/18 04:49:05;0.00;0.00;0.62;0.00;0.00;0.62;;;;;24.80;1.00;;;;;;2576471;55;1909;-82
2021/06/18 04:51:32;405620.00;1.35;699.47;149952.00;0.50;259.72;;;;;25.00;1.00;;;;;;2575253;55;1038;-79
2021/06/18 04:53:58;0.00;0.00;0.62;0.00;0.00;0.62;;;;;25.10;1.00;;;;;;2567997;56;1189;-79
2021/06/18 04:56:25;66724.00;0.22;116.10;0.00;0.00;0.62;;;;;25.10;1.00;;;;;;2576782;55;1212;-80
2021/06/18 04:58:52;48211.00;0.16;84.09;0.00;0.00;0.62;;;;;25.20;1.00;;;;;;2575309;56;1140;-79
2021/06/18 05:01:21;326350.00;1.09;563.21;53640.00;0.18;93.48;;;;;25.30;1.00;;;;;;2573624;56;1319;-79
2021/06/18 05:03:48;0.00;0.00;0.62;0.00;0.00;0.62;;;;;25.30;1.00;;;;;;2574047;56;1117;-79
2021/06/18 05:06:14;239905.00;0.80;414.59;98553.00;0.33;171.07;;;;;25.40;1.00;;;;;;2564452;56;1257;-79
2021/06/18 05:08:41;0.00;0.00;0.62;0.00;0.00;0.62;;;;;25.40;1.00;;;;;;2564082;55;1928;-79
2021/06/18 05:11:08;23291.00;0.08;40.97;0.00;0.00;0.62;;;;;25.70;1.00;;;;;;2564563;56;1181;-79
2021/06/18 05:13:35;0.00;0.00;0.62;0.00;0.00;0.62;;;;;25.60;1.00;;;;;;2564739;56;1193;-79
2021/06/18 05:16:02;50653.00;0.17;88.32;0.00;0.00;0.62;;;;;25.80;1.00;;;;;;2564361;56;1318;-79
2021/06/18 05:18:30;0.00;0.00;0.62;0.00;0.00;0.62;;;;;26.00;1.00;;;;;;2564328;56;1189;-79
2021/06/18 05:20:57;252136.00;0.84;435.62;88747.00;0.30;154.14;;;;;26.10;1.00;;;;;;2564382;56;1128;-79
2021/06/18 05:23:24;239307.00;0.80;413.56;60161.00;0.20;104.76;;;;;26.30;1.00;;;;;;2564059;56;1081;-79
2021/06/18 05:25:53;57645.00;0.19;100.41;0.00;0.00;0.62;;;;;26.40;1.00;;;;;;2564183;56;1306;-79
2021/06/18 05:28:20;82654.00;0.28;143.62;16255.00;0.05;28.78;;;;;26.50;1.00;;;;;;2564448;56;1979;-80
2021/06/18 05:30:47;0.00;0.00;0.62;0.00;0.00;0.62;;;;;26.50;1.00;;;;;;2564386;56;1085;-78
2021/06/18 05:33:14;0.00;0.00;0.62;0.00;0.00;0.62;;;;;26.50;1.00;;;;;;2563996;56;1177;-80
2021/06/18 05:35:44;31813.00;0.11;55.72;0.00;0.00;0.62;;;;;26.50;1.00;;;;;;2564134;56;1323;-78
2021/06/18 05:38:11;117423.00;0.39;203.64;0.00;0.00;0.62;;;;;26.70;1.00;;;;;;2564152;56;1210;-79
2021/06/18 05:40:41;24012.00;0.08;42.22;0.00;0.00;0.62;;;;;27.20;1.00;;;;;;2564563;56;1189;-81
2021/06/18 05:43:08;0.00;0.00;0.62;0.00;0.00;0.62;;;;;28.40;1.00;;;;;;2565029;56;1085;-81
2021/06/18 05:45:36;0.00;0.00;0.62;0.00;0.00;0.62;;;;;30.10;1.00;;;;;;2567013;55;1695;-79
2021/06/18 05:48:03;0.00;0.00;0.62;0.00;0.00;0.62;;;;;32.00;1.00;;;;;;2564726;56;1975;-79
2021/06/18 05:50:30;0.00;0.00;0.62;0.00;0.00;0.62;;;;;34.00;1.00;;;;;;2564805;56;1101;-78
2021/06/18 05:52:58;125455.00;0.42;217.49;35786.00;0.12;62.60;;;;;35.50;1.00;;;;;;2564421;56;1134;-78
2021/06/18 05:55:25;0.00;0.00;0.62;0.00;0.00;0.62;;;;;35.90;1.00;;;;;;2564485;55;1355;-79
2021/06/18 05:57:52;234666.00;0.78;405.58;94955.00;0.32;164.86;;;;;36.20;1.00;;;;;;2564525;56;1054;-79
2021/06/18 06:00:21;0.00;0.00;0.62;0.00;0.00;0.62;;;;;37.50;1.00;;;;;;2564940;56;1123;-80
2021/06/18 06:02:48;0.00;0.00;0.62;0.00;0.00;0.62;;;;;37.80;1.00;;;;;;2565125;56;1117;-80
2021/06/18 06:05:15;0.00;0.00;0.62;0.00;0.00;0.62;;;;;38.60;1.00;;;;;;2565020;56;1314;-80
2021/06/18 06:07:45;267990.00;0.89;462.89;137667.00;0.46;238.55;;;;;39.30;1.00;;;;;;2564900;56;1933;-80
2021/06/18 06:10:15;0.00;0.00;0.62;0.00;0.00;0.62;;;;;39.50;1.00;;;;;;2565120;56;1181;-82
2021/06/18 06:12:42;42567.00;0.14;74.33;0.00;0.00;0.62;;;;;39.70;1.00;;;;;;2565256;56;1098;-81
2021/06/18 06:15:10;19256.00;0.06;33.98;0.00;0.00;0.62;;;;;40.20;1.00;;;;;;2564834;56;1304;-81
2021/06/18 06:17:37;0.00;0.00;0.62;0.00;0.00;0.62;;;;;40.50;1.00;;;;;;2564878;56;1098;-81
2021/06/18 06:20:05;108600.00;0.36;188.41;44140.00;0.15;77.05;;;;;40.00;1.00;;;;;;2564936;56;1169;-81
2021/06/18 06:22:32;108697.00;0.36;188.58;0.00;0.00;0.62;;;;;39.00;1.00;;;;;;2565025;56;1193;-81
2021/06/18 06:24:59;92192.00;0.31;160.09;0.00;0.00;0.62;;;;;39.40;1.00;;;;;;2564961;56;1365;-80
2021/06/18 06:27:28;54629.00;0.18;95.19;0.00;0.00;0.62;;;;;39.00;1.00;;;;;;2565307;56;1105;-81
2021/06/18 06:29:54;33105.00;0.11;57.96;0.00;0.00;0.62;;;;;39.30;1.00;;;;;;2565217;56;1942;-80
2021/06/18 06:32:21;0.00;0.00;0.62;0.00;0.00;0.62;;;;;40.30;1.00;;;;;;2565772;56;1103;-80
2021/06/18 06:34:49;0.00;0.00;0.62;0.00;0.00;0.62;;;;;39.90;1.00;;;;;;2563683;56;1265;-81
2021/06/18 06:37:16;0.00;0.00;0.62;0.00;0.00;0.62;;;;;39.50;1.00;;;;;;2565727;56;1118;-80
2021/06/18 06:39:43;0.00;0.00;0.62;0.00;0.00;0.62;;;;;39.10;1.00;;;;;;2565206;56;1110;-81
2021/06/18 06:42:10;0.00;0.00;0.62;0.00;0.00;0.62;;;;;39.80;1.00;;;;;;2565644;56;1172;-81
2021/06/18 06:44:38;0.00;0.00;0.62;0.00;0.00;0.62;;;;;39.80;1.00;;;;;;2565451;56;1128;-82
2021/06/18 06:47:05;109185.00;0.36;189.42;0.00;0.00;0.62;;;;;40.10;1.00;;;;;;2565208;56;1101;-82
2021/06/18 06:49:32;0.00;0.00;0.62;0.00;0.00;0.62;;;;;41.10;1.00;;;;;;2564424;56;1979;-82
2021/06/18 06:51:59;0.00;0.00;0.62;0.00;0.00;0.62;;;;;40.60;1.00;;;;;;2566893;56;1200;-86
2021/06/18 06:54:26;94131.00;0.31;163.44;0.00;0.00;0.62;;;;;40.10;1.00;;;;;;2563812;55;1159;-86
2021/06/18 06:56:54;149465.00;0.50;258.89;0.00;0.00;0.62;;;;;40.20;1.00;;;;;;2567470;56;1320;-87
2021/06/18 06:59:21;0.00;0.00;0.62;0.00;0.00;0.62;;;;;41.00;1.00;;;;;;2562403;56;1109;-86
2021/06/18 07:01:49;44083.00;0.15;76.95;0.00;0.00;0.62;;;;;41.30;1.00;;;;;;2561967;56;1106;-88
2021/06/18 07:04:16;218097.00;0.73;377.07;0.00;0.00;0.62;;;;;41.10;1.00;;;;;;2562661;56;1126;-88
2021/06/18 07:06:44;112652.00;0.38;195.41;0.00;0.00;0.62;;;;;41.10;1.00;;;;;;2562952;56;1337;-88
2021/06/18 07:09:14;135197.00;0.45;234.29;0.00;0.00;0.62;;;;;41.10;1.00;;;;;;2562809;56;1948;-88
2021/06/18 07:11:41;66249.00;0.22;115.28;0.00;0.00;0.62;;;;;41.50;1.00;;;;;;2562852;56;1038;-86
2021/06/18 07:14:10;186769.00;0.62;323.15;68449.00;0.23;119.08;;;;;41.90;1.00;;;;;;2563336;56;1050;-87
2021/06/18 07:16:36;264321.00;0.88;456.58;0.00;0.00;0.62;;;;;41.00;1.00;;;;;;2557404;56;1338;-86
2021/06/18 07:19:05;150983.00;0.50;261.50;0.00;0.00;0.62;;;;;40.80;1.00;;;;;;2554729;56;1224;-87
2021/06/18 07:21:32;154445.00;0.51;267.47;0.00;0.00;0.62;;;;;41.20;1.00;;;;;;2557614;56;1254;-88
2021/06/18 07:24:00;75745.00;0.25;131.69;0.00;0.00;0.62;;;;;40.80;1.00;;;;;;2556416;56;937;-90
2021/06/18 07:26:28;154594.00;0.52;267.72;0.00;0.00;0.62;;;;;40.70;1.00;;;;;;2557763;56;1481;-89
2021/06/18 07:28:55;294195.00;0.98;507.94;55567.00;0.19;96.81;;;;;41.70;1.00;;;;;;2557753;56;1999;-89
2021/06/18 07:31:22;176494.00;0.59;305.45;3201.00;0.01;6.17;;;;;41.20;1.00;;;;;;2557845;56;1083;-90
2021/06/18 07:33:49;174204.00;0.58;301.51;50436.00;0.17;87.94;;;;;41.40;1.00;;;;;;2554678;56;1080;-88
2021/06/18 07:36:18;220320.00;0.73;380.89;61740.00;0.21;107.48;;;;;40.90;1.00;;;;;;2567831;56;1338;-88
2021/06/18 07:38:44;187788.00;0.63;324.90;61401.00;0.20;106.90;;;;;41.00;1.00;;;;;;2567171;55;1039;-86
2021/06/18 07:41:11;102487.00;0.34;177.86;35871.00;0.12;62.74;;;;;41.50;1.00;;;;;;2576662;55;1014;-87
2021/06/18 07:43:38;106022.00;0.35;183.97;0.00;0.00;0.62;;;;;41.00;1.00;;;;;;2576660;55;1023;-86
2021/06/18 07:46:05;194916.00;0.65;337.17;0.00;0.00;0.62;;;;;41.30;1.00;;;;;;2576581;55;1389;-87
2021/06/18 07:48:32;0.00;0.00;0.62;0.00;0.00;0.62;;;;;40.80;1.00;;;;;;2578771;55;1953;-86
2021/06/18 07:50:59;0.00;0.00;0.62;0.00;0.00;0.62;;;;;41.00;1.00;;;;;;2576650;55;1066;-87
2021/06/18 07:53:27;120244.00;0.40;208.50;0.00;0.00;0.62;;;;;40.80;1.00;;;;;;2576662;55;1098;-86
2021/06/18 07:55:54;114137.00;0.38;197.97;0.00;0.00;0.62;;;;;40.60;1.00;;;;;;2576400;55;1274;-85
2021/06/18 07:58:21;32198.00;0.11;56.39;0.00;0.00;0.62;;;;;40.40;1.00;;;;;;2576641;55;1142;-86
2021/06/18 08:00:48;0.00;0.00;0.62;0.00;0.00;0.62;;;;;40.40;1.00;;;;;;2576560;55;1102;-86
2021/06/18 08:03:15;97852.00;0.33;169.86;0.00;0.00;0.62;;;;;40.60;1.00;;;;;;2578730;55;1632;-86
2021/06/18 08:05:42;20875.00;0.07;36.79;0.00;0.00;0.62;;;;;40.70;1.00;;;;;;2576568;55;1283;-86
2021/06/18 08:08:09;0.00;0.00;0.62;0.00;0.00;0.62;;;;;40.30;1.00;;;;;;2576677;55;1090;-87
2021/06/18 08:10:37;8400.00;0.03;15.18;0.00;0.00;0.62;;;;;40.40;1.00;;;;;;2578832;55;1003;-86
2021/06/18 08:13:04;0.00;0.00;0.62;0.00;0.00;0.62;;;;;40.70;1.00;;;;;;2577988;55;1056;-87
2021/06/18 08:15:31;0.00;0.00;0.62;0.00;0.00;0.62;;;;;40.70;1.00;;;;;;2576514;55;1370;-88
2021/06/18 08:17:58;8286.00;0.03;14.98;0.00;0.00;0.62;;;;;41.30;1.00;;;;;;2576384;56;1129;-88
2021/06/18 08:20:26;0.00;0.00;0.62;0.00;0.00;0.62;;;;;41.00;1.00;;;;;;2576393;55;1059;-88
2021/06/18 08:22:56;0.00;0.00;0.62;0.00;0.00;0.62;;;;;41.00;1.00;;;;;;2576450;55;1109;-89
2021/06/18 08:25:23;100871.00;0.34;175.08;35336.00;0.12;61.82;;;;;41.00;1.00;;;;;;2578437;55;1373;-89
2021/06/18 08:27:51;165604.00;0.55;286.69;0.00;0.00;0.62;;;;;40.20;1.00;;;;;;2576248;56;1124;-88
2021/06/18 08:30:20;72042.00;0.24;125.29;0.00;0.00;0.62;;;;;39.90;1.00;;;;;;2577582;55;1968;-89
2021/06/18 08:32:47;0.00;0.00;0.62;0.00;0.00;0.62;;;;;39.90;1.00;;;;;;2576457;55;1175;-89
2021/06/18 08:35:14;0.00;0.00;0.62;0.00;0.00;0.62;;;;;39.80;1.00;;;;;;2576460;55;1294;-88
2021/06/18 08:37:41;51270.00;0.17;89.38;0.00;0.00;0.62;;;;;39.80;1.00;;;;;;2576546;55;1114;-88
2021/06/18 08:40:09;76152.00;0.25;132.39;0.00;0.00;0.62;;;;;39.60;1.00;;;;;;2576166;55;1109;-88
2021/06/18 08:42:36;158766.00;0.53;274.91;0.00;0.00;0.62;;;;;39.10;1.00;;;;;;2576346;55;1082;-88
2021/06/18 08:45:06;0.00;0.00;0.62;0.00;0.00;0.62;;;;;38.90;1.00;;;;;;2576156;55;1389;-88
2021/06/18 08:47:33;0.00;0.00;0.62;0.00;0.00;0.62;;;;;38.90;1.00;;;;;;2575888;55;1113;-88
2021/06/18 08:50:00;94016.00;0.31;163.24;4029.00;0.01;7.60;;;;;38.90;1.00;;;;;;2573230;56;1954;-86
2021/06/18 08:52:27;231330.00;0.77;399.84;13514.00;0.05;24.04;;;;;38.60;1.00;;;;;;2573864;56;1076;-86
2021/06/18 08:54:55;0.00;0.00;0.62;0.00;0.00;0.62;;;;;38.30;1.00;;;;;;2573759;56;1340;-85
2021/06/18 08:57:23;101047.00;0.34;175.38;0.00;0.00;0.62;;;;;38.80;1.00;;;;;;2574266;56;1085;-86
2021/06/18 08:59:51;23775.00;0.08;41.81;0.00;0.00;0.62;;;;;38.90;1.00;;;;;;2575392;55;1089;-86
2021/06/18 09:02:19;8962.00;0.03;16.15;0.00;0.00;0.62;;;;;38.70;1.00;;;;;;2574881;55;1615;-85
2021/06/18 09:05:06;0.00;0.00;0.62;0.00;0.00;0.62;;;;;38.30;1.00;;;;;;2575189;55;1369;-84
2021/06/18 09:07:51;4598.00;0.02;8.59;0.00;0.00;0.62;;;;;37.80;1.00;;;;;;2573877;55;1093;-84
2021/06/18 09:10:34;0.00;0.00;0.62;0.00;0.00;0.62;;;;;38.00;1.00;;;;;;2573175;56;1937;-86
2021/06/18 09:13:09;0.00;0.00;0.62;0.00;0.00;0.62;;;;;38.10;1.00;;;;;;2572984;56;1101;-84
2021/06/18 09:15:36;31628.00;0.11;55.40;0.00;0.00;0.62;;;;;37.40;1.00;;;;;;2573673;56;1289;-85
2021/06/18 09:18:23;0.00;0.00;0.62;0.00;0.00;0.62;;;;;37.70;1.00;;;;;;2574259;56;1146;-85
2021/06/18 09:20:51;0.00;0.00;0.62;0.00;0.00;0.62;;;;;38.00;1.00;;;;;;2573671;56;1098;-85
2021/06/18 09:23:22;244265.00;0.81;422.09;48379.00;0.16;84.38;;;;;37.50;1.00;;;;;;2575510;55;1165;-85
2021/06/18 09:25:49;0.00;0.00;0.62;0.00;0.00;0.62;;;;;36.90;1.00;;;;;;2573641;55;1292;-85
2021/06/18 09:28:16;139753.00;0.47;242.15;42212.00;0.14;73.72;;;;;36.20;1.00;;;;;;2576105;55;1132;-83
2021/06/18 09:30:43;0.00;0.00;0.62;0.00;0.00;0.62;;;;;36.10;1.00;;;;;;2573476;56;1911;-84
2021/06/18 09:33:21;0.00;0.00;0.62;0.00;0.00;0.62;;;;;36.00;1.00;;;;;;2575735;55;1163;-83
2021/06/18 09:36:06;0.00;0.00;0.62;0.00;0.00;0.62;;;;;35.70;1.00;;;;;;2572736;56;1459;-84
2021/06/18 09:38:43;25738.00;0.09;45.21;0.00;0.00;0.62;;;;;35.90;1.00;;;;;;2573300;56;1152;-85
2021/06/18 09:41:29;26406.00;0.09;46.36;0.00;0.00;0.62;;;;;35.80;1.00;;;;;;2573277;56;1088;-84
2021/06/18 09:43:58;5110.00;0.02;9.48;0.00;0.00;0.62;;;;;35.00;1.00;;;;;;2570967;56;1176;-84
2021/06/18 09:46:42;115599.00;0.39;200.49;23154.00;0.08;40.73;;;;;35.30;1.00;;;;;;2571319;56;1270;-84
2021/06/18 09:49:13;0.00;0.00;0.62;0.00;0.00;0.62;;;;;35.40;1.00;;;;;;2571168;56;1952;-84
2021/06/18 09:51:59;0.00;0.00;0.62;0.00;0.00;0.62;;;;;35.20;1.00;;;;;;2574176;55;1128;-84
2021/06/18 09:54:31;0.00;0.00;0.62;0.00;0.00;0.62;;;;;35.70;1.00;;;;;;2571514;56;1140;-83
2021/06/18 09:57:08;0.00;0.00;0.62;0.00;0.00;0.62;;;;;35.70;1.00;;;;;;2571629;56;1524;-83
2021/06/18 09:59:50;0.00;0.00;0.62;0.00;0.00;0.62;;;;;35.70;1.00;;;;;;2574494;55;1501;-83
2021/06/18 10:02:19;183735.00;0.61;317.92;60090.00;0.20;104.63;;;;;35.00;1.00;;;;;;2576641;55;1052;-86
2021/06/18 10:04:48;240685.00;0.80;415.93;49674.00;0.17;86.62;;;;;34.70;1.00;;;;;;2576682;55;1355;-85
2021/06/18 10:07:20;302553.00;1.01;522.31;64366.00;0.21;112.02;;;;;35.10;1.00;;;;;;2576365;56;1044;-84
2021/06/18 10:09:49;168383.00;0.56;291.48;57049.00;0.19;99.38;;;;;35.10;1.00;;;;;;2572636;56;1948;-84
2021/06/18 10:12:16;166791.00;0.56;288.74;57206.00;0.19;99.65;;;;;35.50;1.00;;;;;;2576660;55;1199;-86
2021/06/18 10:14:43;499128.00;1.66;860.32;55571.00;0.19;96.82;;;;;35.80;1.00;;;;;;2576521;55;1320;-87
2021/06/18 10:17:10;280132.00;0.93;483.76;63298.00;0.21;110.18;;;;;36.00;1.00;;;;;;2576552;55;1157;-85
2021/06/18 10:19:37;258595.00;0.86;446.73;53474.00;0.18;93.19;;;;;36.00;1.00;;;;;;2576547;55;1183;-86
2021/06/18 10:22:09;169368.00;0.56;293.18;63758.00;0.21;110.97;;;;;36.10;1.00;;;;;;2574738;56;1122;-84